Aviation Digital Data Service (ADDS)

Output produced by METARs form (1146 UTC 28 May 2016)
found at http://aviationweather.gov/adds/metars/
 
KLCH 281053Z 31004KT 10SM CLR 19/18 A2985 RMK AO2 SLP116 T01890183 $